Eduan Airport


Codes: FVED/
Name: Eduan Airport
City: Eduan
Country: Zimbabwe
Elevation: 3900 ft.

Photos at Eduan Airport


   Photos courtesy of SpottingLog. You can add your own sightings and photos by signing up for a free trial today.



No photos found.

Weather at Eduan Airport


Time (UTC)DescriptionTempratureWindCloud coverageVisibilityPressureHumidity
13-Jun-2024 03:00Clear Sky7°C7 mph, SE0%10000m1026hPa76%
13-Jun-2024 06:00Clear Sky10°C7 mph, SE0%10000m1027hPa66%
13-Jun-2024 09:00Clear Sky22°C4 mph, E0%10000m1024hPa24%
13-Jun-2024 12:00Clear Sky26°C4 mph, SE0%10000m1019hPa11%
13-Jun-2024 15:00Clear Sky22°C9 mph, S0%10000m1019hPa13%
13-Jun-2024 18:00Clear Sky14°C9 mph, SE0%10000m1023hPa27%
13-Jun-2024 21:00Clear Sky10°C7 mph, SE0%10000m1025hPa41%
14-Jun-2024 00:00Clear Sky8°C7 mph, SE0%10000m1024hPa55%
14-Jun-2024 03:00Clear Sky6°C4 mph, SE0%10000m1026hPa68%
14-Jun-2024 06:00Clear Sky11°C9 mph, SE0%10000m1026hPa54%
14-Jun-2024 09:00Clear Sky22°C9 mph, SE0%10000m1024hPa20%
14-Jun-2024 12:00Clear Sky25°C9 mph, SE0%10000m1018hPa12%
14-Jun-2024 15:00Clear Sky22°C9 mph, SE0%10000m1019hPa17%
14-Jun-2024 18:00Clear Sky13°C9 mph, SE0%10000m1023hPa39%
14-Jun-2024 21:00Clear Sky10°C9 mph, SE0%10000m1024hPa56%
15-Jun-2024 00:00Clear Sky7°C7 mph, SE0%10000m1025hPa73%
15-Jun-2024 03:00Clear Sky6°C7 mph, SE0%10000m1025hPa85%
15-Jun-2024 06:00Clear Sky11°C7 mph, SE0%10000m1025hPa59%
15-Jun-2024 09:00Clear Sky21°C7 mph, E0%10000m1021hPa21%
15-Jun-2024 12:00Clear Sky26°C4 mph, E0%10000m1017hPa11%
15-Jun-2024 15:00Clear Sky22°C4 mph, SE0%10000m1016hPa15%
15-Jun-2024 18:00Clear Sky12°C7 mph, SE0%10000m1022hPa28%
15-Jun-2024 21:00Clear Sky9°C7 mph, SE0%10000m1023hPa40%
16-Jun-2024 00:00Clear Sky8°C7 mph, SE0%10000m1023hPa45%
16-Jun-2024 03:00Clear Sky7°C7 mph, SE0%10000m1024hPa65%
16-Jun-2024 06:00Clear Sky12°C7 mph, SE0%10000m1024hPa54%
16-Jun-2024 09:00Clear Sky22°C4 mph, E0%10000m1021hPa27%
16-Jun-2024 12:00Clear Sky26°C2 mph, E0%10000m1016hPa14%
16-Jun-2024 15:00Clear Sky21°C0 mph, E0%10000m1016hPa17%
16-Jun-2024 18:00Clear Sky14°C9 mph, SE0%10000m1021hPa30%
16-Jun-2024 21:00Clear Sky10°C7 mph, E0%10000m1022hPa42%
17-Jun-2024 00:00Clear Sky8°C7 mph, SE0%10000m1023hPa55%
17-Jun-2024 03:00Clear Sky8°C7 mph, E0%10000m1023hPa79%
17-Jun-2024 06:00Clear Sky12°C4 mph, E0%10000m1024hPa59%
17-Jun-2024 09:00Clear Sky23°C4 mph, E0%10000m1021hPa28%
17-Jun-2024 12:00Clear Sky26°C2 mph, NE2%10000m1017hPa17%
17-Jun-2024 15:00Clear Sky22°C2 mph, NW0%10000m1017hPa21%
17-Jun-2024 18:00Clear Sky14°C7 mph, SE2%10000m1021hPa34%
17-Jun-2024 21:00Clear Sky11°C7 mph, SE0%10000m1022hPa53%
18-Jun-2024 00:00Clear Sky9°C7 mph, E0%10000m1022hPa66%